createdAt,value
2017-10-27T00:01:20.320Z,96.50
2017-10-27T00:03:49.333Z,96.90
2017-10-27T00:06:17.588Z,96.60
2017-10-27T00:08:45.856Z,96.50
2017-10-27T00:11:14.118Z,96.40
2017-10-27T00:13:42.364Z,96.40
2017-10-27T00:16:10.628Z,96.30
2017-10-27T00:18:38.883Z,96.40
2017-10-27T00:21:08.654Z,96.50
2017-10-27T00:23:36.904Z,96.50
2017-10-27T00:26:05.933Z,96.60
2017-10-27T00:28:34.189Z,96.60
2017-10-27T00:31:02.471Z,96.60
2017-10-27T00:33:30.723Z,96.60
2017-10-27T00:35:59.796Z,96.50
2017-10-27T00:38:28.056Z,96.40
2017-10-27T00:40:56.295Z,96.50
2017-10-27T00:43:25.328Z,96.70
2017-10-27T00:45:53.611Z,96.70
2017-10-27T00:48:21.879Z,96.80
2017-10-27T00:50:50.117Z,96.80
2017-10-27T00:53:19.884Z,96.60
2017-10-27T00:55:48.148Z,96.50
2017-10-27T00:58:16.412Z,96.10
2017-10-27T01:00:44.696Z,96.00
2017-10-27T01:03:13.831Z,96.20
2017-10-27T01:05:42.075Z,96.10
2017-10-27T01:08:11.124Z,96.10
2017-10-27T01:10:40.166Z,96.10
2017-10-27T01:13:09.196Z,96.70
2017-10-27T01:15:37.451Z,96.30
2017-10-27T01:18:06.496Z,96.30
2017-10-27T01:20:34.760Z,96.30
2017-10-27T01:23:03.067Z,96.30
2017-10-27T01:25:31.292Z,96.40
2017-10-27T01:28:00.323Z,96.70
2017-10-27T01:30:28.578Z,96.70
2017-10-27T01:32:57.643Z,96.70
2017-10-27T01:35:25.879Z,96.70
2017-10-27T01:37:54.140Z,96.70
2017-10-27T01:40:22.391Z,96.80
2017-10-27T01:42:51.426Z,97.00
2017-10-27T01:45:19.679Z,96.60
2017-10-27T01:47:48.702Z,96.60
2017-10-27T01:50:16.947Z,96.60
2017-10-27T01:52:45.223Z,96.50
2017-10-27T01:55:13.467Z,96.70
2017-10-27T01:57:41.716Z,96.80
2017-10-27T02:00:10.756Z,96.70
2017-10-27T02:02:38.994Z,96.70
2017-10-27T02:05:08.024Z,94.30
2017-10-27T02:07:37.166Z,94.30
2017-10-27T02:10:05.419Z,92.90
2017-10-27T02:12:33.675Z,92.30
2017-10-27T02:15:01.940Z,93.10
2017-10-27T02:17:30.195Z,92.40
2017-10-27T02:19:59.258Z,91.10
2017-10-27T02:22:27.516Z,91.00
2017-10-27T02:24:55.803Z,90.70
2017-10-27T02:27:24.033Z,90.20
2017-10-27T02:29:52.301Z,89.70
2017-10-27T02:32:20.555Z,89.90
2017-10-27T02:34:48.835Z,90.10
2017-10-27T02:37:17.123Z,90.20
2017-10-27T02:39:45.379Z,90.50
2017-10-27T02:42:13.632Z,90.60
2017-10-27T02:44:41.904Z,90.40
2017-10-27T02:47:10.915Z,90.70
2017-10-27T02:49:39.179Z,90.50
2017-10-27T02:52:08.195Z,90.80
2017-10-27T02:54:37.231Z,90.50
2017-10-27T02:57:05.480Z,90.50
2017-10-27T02:59:33.742Z,90.20
2017-10-27T03:02:02.101Z,90.10
2017-10-27T03:04:30.359Z,89.40
2017-10-27T03:06:58.603Z,89.60
2017-10-27T03:09:26.862Z,89.60
2017-10-27T03:11:55.099Z,89.60
2017-10-27T03:14:23.403Z,89.60
2017-10-27T03:16:51.844Z,89.80
2017-10-27T03:19:20.887Z,90.20
2017-10-27T03:21:49.152Z,90.20
2017-10-27T03:24:17.396Z,90.40
2017-10-27T03:26:45.646Z,90.50
2017-10-27T03:29:13.902Z,90.60
2017-10-27T03:31:42.173Z,90.60
2017-10-27T03:34:10.468Z,90.60
2017-10-27T03:36:38.760Z,90.50
2017-10-27T03:39:07.009Z,90.60
2017-10-27T03:41:35.320Z,90.60
2017-10-27T03:44:03.568Z,90.80
2017-10-27T03:46:32.595Z,90.90
2017-10-27T03:49:00.876Z,90.90
2017-10-27T03:51:29.135Z,90.80
2017-10-27T03:53:57.440Z,90.60
2017-10-27T03:56:25.698Z,90.50
2017-10-27T03:58:53.953Z,90.50
2017-10-27T04:01:22.203Z,90.40
2017-10-27T04:03:50.473Z,90.90
2017-10-27T04:06:18.744Z,90.40
2017-10-27T04:08:47.034Z,90.50
2017-10-27T04:11:15.294Z,90.40
2017-10-27T04:13:43.534Z,90.60
2017-10-27T04:16:11.799Z,90.60
2017-10-27T04:18:40.052Z,90.80
2017-10-27T04:21:08.304Z,90.80
2017-10-27T04:23:36.619Z,90.90
2017-10-27T04:26:04.877Z,91.00
2017-10-27T04:28:33.125Z,91.20
2017-10-27T04:31:01.460Z,91.30
2017-10-27T04:33:29.748Z,91.40
2017-10-27T04:35:58.025Z,91.50
2017-10-27T04:38:26.268Z,91.60
2017-10-27T04:40:55.292Z,92.10
2017-10-27T04:43:23.541Z,92.10
2017-10-27T04:45:52.560Z,92.30
2017-10-27T04:48:20.822Z,92.30
2017-10-27T04:50:49.173Z,92.40
2017-10-27T04:53:17.399Z,92.40
2017-10-27T04:55:45.671Z,92.60
2017-10-27T04:58:13.996Z,92.90
2017-10-27T05:00:42.262Z,93.30
2017-10-27T05:03:10.498Z,93.60
2017-10-27T05:05:39.537Z,94.30
2017-10-27T05:08:07.782Z,94.30
2017-10-27T05:10:36.811Z,94.70
2017-10-27T05:13:05.054Z,94.70
2017-10-27T05:15:34.079Z,94.20
2017-10-27T05:18:07.972Z,94.10
2017-10-27T05:20:42.832Z,94.00
2017-10-27T05:23:16.854Z,94.00
2017-10-27T05:25:45.151Z,94.00
2017-10-27T05:28:13.400Z,93.90
2017-10-27T05:30:41.712Z,94.00
2017-10-27T05:33:09.961Z,94.20
2017-10-27T05:35:38.262Z,94.30
2017-10-27T05:38:06.507Z,94.30
2017-10-27T05:40:35.540Z,94.40
2017-10-27T05:43:03.816Z,94.40
2017-10-27T05:45:32.818Z,94.50
2017-10-27T05:48:01.139Z,94.40
2017-10-27T05:50:29.388Z,94.60
2017-10-27T05:52:57.657Z,94.30
2017-10-27T05:55:25.943Z,94.10
2017-10-27T05:57:54.219Z,94.00
2017-10-27T06:00:25.498Z,93.80
2017-10-27T06:02:55.407Z,93.30
2017-10-27T06:05:24.564Z,93.50
2017-10-27T06:07:52.852Z,93.20
2017-10-27T06:10:21.883Z,93.10
2017-10-27T06:12:50.143Z,93.10
2017-10-27T06:15:18.384Z,93.50
2017-10-27T06:17:46.740Z,93.10
2017-10-27T06:20:15.011Z,92.70
2017-10-27T06:22:43.268Z,92.80
2017-10-27T06:25:11.515Z,92.70
2017-10-27T06:27:39.851Z,92.60
2017-10-27T06:30:08.100Z,92.40
2017-10-27T06:32:37.112Z,92.00
2017-10-27T06:35:05.360Z,92.00
2017-10-27T06:37:33.627Z,91.90
2017-10-27T06:40:01.872Z,92.10
2017-10-27T06:42:30.126Z,91.90
2017-10-27T06:44:58.378Z,91.80
2017-10-27T06:47:27.622Z,91.90
2017-10-27T06:49:55.859Z,91.80
2017-10-27T06:52:24.118Z,91.80
2017-10-27T06:54:52.360Z,91.90
2017-10-27T06:57:20.666Z,92.00
2017-10-27T06:59:48.956Z,91.90
2017-10-27T07:02:17.211Z,91.40
2017-10-27T07:04:45.592Z,90.60
2017-10-27T07:07:13.853Z,89.70
2017-10-27T07:09:42.859Z,86.80
2017-10-27T07:12:11.922Z,85.70
2017-10-27T07:14:40.168Z,85.60
2017-10-27T07:17:08.428Z,84.10
2017-10-27T07:19:36.727Z,82.60
2017-10-27T07:22:04.997Z,80.90
2017-10-27T07:24:33.242Z,78.10
2017-10-27T07:27:01.492Z,75.70
2017-10-27T07:29:29.769Z,72.20
2017-10-27T07:31:58.030Z,68.50
2017-10-27T07:34:26.270Z,66.60
2017-10-27T07:36:54.510Z,63.50
2017-10-27T07:39:22.770Z,59.90
2017-10-27T07:41:51.062Z,58.10
2017-10-27T07:44:19.298Z,56.30
2017-10-27T07:46:48.427Z,54.00
2017-10-27T07:49:16.669Z,53.90
2017-10-27T07:51:46.443Z,50.20
2017-10-27T07:54:14.712Z,50.20
2017-10-27T07:56:42.996Z,48.20
2017-10-27T07:59:11.240Z,47.80
2017-10-27T08:01:40.270Z,46.10
2017-10-27T08:04:08.663Z,46.10
2017-10-27T08:06:36.932Z,45.60
2017-10-27T08:09:05.179Z,45.10
2017-10-27T08:11:34.216Z,43.90
2017-10-27T08:14:02.467Z,43.80
2017-10-27T08:16:31.510Z,40.90
2017-10-27T08:18:59.753Z,40.90
2017-10-27T08:21:28.087Z,40.20
2017-10-27T08:23:56.309Z,39.50
2017-10-27T08:26:25.322Z,38.20
2017-10-27T08:28:53.631Z,38.10
2017-10-27T08:31:21.930Z,36.90
2017-10-27T08:33:50.176Z,36.10
2017-10-27T08:36:18.442Z,35.50
2017-10-27T08:38:47.481Z,33.50
2017-10-27T08:41:15.743Z,33.50
2017-10-27T08:43:43.970Z,33.20
2017-10-27T08:46:13.748Z,31.30
2017-10-27T08:48:41.989Z,31.30
2017-10-27T08:51:11.014Z,31.80
2017-10-27T08:53:39.265Z,31.70
2017-10-27T08:56:07.586Z,32.60
2017-10-27T08:58:41.789Z,33.20
2017-10-27T09:01:10.820Z,33.60
2017-10-27T09:03:39.077Z,33.70
2017-10-27T09:06:08.103Z,33.10
2017-10-27T09:08:36.349Z,33.00
2017-10-27T09:11:05.384Z,34.10
2017-10-27T09:13:33.966Z,34.10
2017-10-27T09:16:03.117Z,34.00
2017-10-27T09:18:32.189Z,33.80
2017-10-27T09:21:00.618Z,33.80
2017-10-27T09:23:29.656Z,33.10
2017-10-27T09:25:57.903Z,33.10
2017-10-27T09:28:26.937Z,34.60
2017-10-27T09:30:55.188Z,34.50
2017-10-27T09:33:24.217Z,36.40
2017-10-27T09:35:52.458Z,36.40
2017-10-27T09:38:21.491Z,38.60
2017-10-27T09:40:49.744Z,38.50
2017-10-27T09:43:18.779Z,39.00
2017-10-27T09:45:47.011Z,39.00
2017-10-27T09:48:16.044Z,39.90
2017-10-27T09:50:44.300Z,39.90
2017-10-27T09:53:13.323Z,40.10
2017-10-27T09:55:41.777Z,39.70
2017-10-27T09:58:10.828Z,40.70
2017-10-27T10:00:39.077Z,40.70
2017-10-27T10:03:08.892Z,41.70
2017-10-27T10:05:37.111Z,41.60
2017-10-27T10:08:05.379Z,41.50
2017-10-27T10:10:34.394Z,41.10
2017-10-27T10:13:03.649Z,41.00
2017-10-27T10:15:32.647Z,41.10
2017-10-27T10:18:01.673Z,41.30
2017-10-27T10:20:29.918Z,41.30
2017-10-27T10:22:58.177Z,41.40
2017-10-27T10:25:26.434Z,40.60
2017-10-27T10:27:54.703Z,40.60
2017-10-27T10:30:22.953Z,40.30
2017-10-27T10:32:51.977Z,39.10
2017-10-27T10:35:20.221Z,39.10
2017-10-27T10:37:49.249Z,38.20
2017-10-27T10:40:17.689Z,38.30
2017-10-27T10:42:46.838Z,39.20
2017-10-27T10:45:15.084Z,39.20
2017-10-27T10:47:43.345Z,39.10
2017-10-27T10:50:11.634Z,39.10
2017-10-27T10:52:39.887Z,39.00
2017-10-27T10:55:08.171Z,38.10
2017-10-27T10:57:36.442Z,38.10
2017-10-27T11:00:04.700Z,38.50
2017-10-27T11:02:32.966Z,39.50
2017-10-27T11:05:01.981Z,40.50
2017-10-27T11:07:30.238Z,41.10
2017-10-27T11:09:59.899Z,41.10
2017-10-27T11:12:28.412Z,41.10
2017-10-27T11:14:56.844Z,41.60
2017-10-27T11:17:25.413Z,42.40
2017-10-27T11:19:54.792Z,42.30
2017-10-27T11:22:24.215Z,42.30
2017-10-27T11:24:52.645Z,42.20
2017-10-27T11:27:22.022Z,43.70
2017-10-27T11:29:51.039Z,44.20
2017-10-27T11:32:20.075Z,44.80
2017-10-27T11:34:48.320Z,44.80
2017-10-27T11:37:16.611Z,45.60
2017-10-27T11:39:44.878Z,45.90
2017-10-27T11:42:13.899Z,46.70
2017-10-27T11:44:42.223Z,46.70
2017-10-27T11:47:12.077Z,47.20
2017-10-27T11:49:40.366Z,46.10
2017-10-27T11:52:08.713Z,46.50
2017-10-27T11:54:36.934Z,46.40
2017-10-27T11:57:05.200Z,47.00
2017-10-27T11:59:34.210Z,47.80
2017-10-27T12:02:02.477Z,47.80
2017-10-27T12:04:31.484Z,47.60
2017-10-27T12:07:01.197Z,47.90
2017-10-27T12:09:30.401Z,48.20
2017-10-27T12:11:59.489Z,48.10
2017-10-27T12:14:28.486Z,49.00
2017-10-27T12:16:57.517Z,49.40
2017-10-27T12:19:25.774Z,49.40
2017-10-27T12:21:54.792Z,49.80
2017-10-27T12:24:25.220Z,49.50
2017-10-27T12:26:53.478Z,49.40
2017-10-27T12:29:22.488Z,50.10
2017-10-27T12:31:51.505Z,50.70
2017-10-27T12:34:19.747Z,50.70
2017-10-27T12:36:48.044Z,50.10
2017-10-27T12:39:17.068Z,49.60
2017-10-27T12:41:45.314Z,49.60
2017-10-27T12:44:14.346Z,48.80
2017-10-27T12:46:42.577Z,48.70
2017-10-27T12:49:22.231Z,48.10
2017-10-27T12:51:56.170Z,48.70
2017-10-27T12:54:25.170Z,49.10
2017-10-27T12:56:53.437Z,49.10
2017-10-27T12:59:22.447Z,50.20
2017-10-27T13:01:50.707Z,50.10
2017-10-27T13:04:19.750Z,50.70
2017-10-27T13:06:47.982Z,50.50
2017-10-27T13:09:16.243Z,50.70
2017-10-27T13:11:44.481Z,50.30
2017-10-27T13:14:12.740Z,49.60
2017-10-27T13:16:41.754Z,47.90
2017-10-27T13:19:10.046Z,47.90
2017-10-27T13:21:38.310Z,48.30
2017-10-27T13:24:07.402Z,47.40
2017-10-27T13:26:36.490Z,47.20
2017-10-27T13:29:05.573Z,47.60
2017-10-27T13:31:33.815Z,47.60
2017-10-27T13:34:02.083Z,48.10
2017-10-27T13:36:30.327Z,49.20
2017-10-27T13:38:58.596Z,50.20
2017-10-27T13:41:26.833Z,50.80
2017-10-27T13:43:55.091Z,51.00
2017-10-27T13:46:23.343Z,51.20
2017-10-27T13:48:51.613Z,50.50
2017-10-27T13:51:19.864Z,50.80
2017-10-27T13:53:48.129Z,50.50
2017-10-27T13:56:16.397Z,50.70
2017-10-27T13:58:44.654Z,50.30
2017-10-27T14:01:12.901Z,50.10
2017-10-27T14:03:41.938Z,50.80
2017-10-27T14:06:11.676Z,50.70
2017-10-27T14:08:39.943Z,50.70
2017-10-27T14:11:08.201Z,50.60
2017-10-27T14:13:37.225Z,51.70
2017-10-27T14:16:05.473Z,51.10
2017-10-27T14:18:33.726Z,51.30
2017-10-27T14:21:02.276Z,51.20
2017-10-27T14:23:31.302Z,51.30
2017-10-27T14:25:59.556Z,51.40
2017-10-27T14:28:28.639Z,51.90
2017-10-27T14:30:57.652Z,52.50
2017-10-27T14:33:26.678Z,53.00
2017-10-27T14:35:54.918Z,52.90
2017-10-27T14:38:23.964Z,54.10
2017-10-27T14:40:52.206Z,54.00
2017-10-27T14:43:21.231Z,54.80
2017-10-27T14:45:49.485Z,54.80
2017-10-27T14:48:18.546Z,55.80
2017-10-27T14:50:46.817Z,55.80
2017-10-27T14:53:15.138Z,56.40
2017-10-27T14:55:44.151Z,56.80
2017-10-27T14:58:12.450Z,56.70
2017-10-27T15:00:40.692Z,57.00
2017-10-27T15:03:09.735Z,58.00
2017-10-27T15:05:37.974Z,57.90
2017-10-27T15:08:06.998Z,59.70
2017-10-27T15:10:35.277Z,59.60
2017-10-27T15:13:04.294Z,61.20
2017-10-27T15:15:32.539Z,61.20
2017-10-27T15:18:01.560Z,62.40
2017-10-27T15:20:29.810Z,62.40
2017-10-27T15:22:58.948Z,63.40
2017-10-27T15:25:27.204Z,63.80
2017-10-27T15:27:56.222Z,65.80
2017-10-27T15:30:24.487Z,65.80
2017-10-27T15:32:52.759Z,66.10
2017-10-27T15:35:21.779Z,68.00
2017-10-27T15:37:50.014Z,68.00
2017-10-27T15:40:19.792Z,69.30
2017-10-27T15:42:48.046Z,69.30
2017-10-27T15:45:17.072Z,71.20
2017-10-27T15:47:45.313Z,71.20
2017-10-27T15:50:13.574Z,70.80
2017-10-27T15:52:41.831Z,71.00
2017-10-27T15:55:10.098Z,71.10
2017-10-27T15:57:38.372Z,71.50
2017-10-27T16:00:06.663Z,71.40
2017-10-27T16:02:34.905Z,71.20
2017-10-27T16:05:03.926Z,71.90
2017-10-27T16:07:32.176Z,71.80
2017-10-27T16:10:01.215Z,71.80
2017-10-27T16:12:29.576Z,71.80
2017-10-27T16:14:57.888Z,72.50
2017-10-27T16:17:26.511Z,72.20
2017-10-27T16:19:54.852Z,72.40
2017-10-27T16:22:23.094Z,72.70
2017-10-27T16:24:51.356Z,73.00
2017-10-27T16:27:19.875Z,73.40
2017-10-27T16:29:48.899Z,74.00
2017-10-27T16:32:17.149Z,73.90
2017-10-27T16:34:45.407Z,73.80
2017-10-27T16:37:13.666Z,74.10
2017-10-27T16:39:41.971Z,74.00
2017-10-27T16:42:10.290Z,74.10
2017-10-27T16:44:39.306Z,74.40
2017-10-27T16:47:07.555Z,74.40
2017-10-27T16:49:36.586Z,74.80
2017-10-27T16:52:04.834Z,74.80
2017-10-27T16:54:33.915Z,74.50
2017-10-27T16:57:02.163Z,74.40
2017-10-27T16:59:30.421Z,74.70
2017-10-27T17:01:58.674Z,74.90
2017-10-27T17:04:27.711Z,75.20
2017-10-27T17:06:56.767Z,75.00
2017-10-27T17:09:25.801Z,76.20
2017-10-27T17:11:54.065Z,75.50
2017-10-27T17:14:23.091Z,75.40
2017-10-27T17:16:52.176Z,75.40
2017-10-27T17:19:21.287Z,75.80
2017-10-27T17:21:49.535Z,75.70
2017-10-27T17:24:17.800Z,75.90
2017-10-27T17:26:46.047Z,76.00
2017-10-27T17:29:15.761Z,76.40
2017-10-27T17:31:44.058Z,76.60
2017-10-27T17:34:12.429Z,76.70
2017-10-27T17:36:40.684Z,76.90
2017-10-27T17:39:09.715Z,77.40
2017-10-27T17:41:37.980Z,77.40
2017-10-27T17:44:06.223Z,77.60
2017-10-27T17:46:35.332Z,77.90
2017-10-27T17:49:04.521Z,77.90
2017-10-27T17:51:32.765Z,77.90
2017-10-27T17:54:01.414Z,78.00
2017-10-27T17:56:30.448Z,78.20
2017-10-27T17:58:58.702Z,78.20
2017-10-27T18:01:26.968Z,78.50
2017-10-27T18:03:56.012Z,78.40
2017-10-27T18:06:24.297Z,78.40
2017-10-27T18:08:53.199Z,78.50
2017-10-27T18:11:21.487Z,78.60
2017-10-27T18:13:49.730Z,78.70
2017-10-27T18:16:17.987Z,78.70
2017-10-27T18:18:47.064Z,78.50
2017-10-27T18:21:15.295Z,78.40
2017-10-27T18:23:43.558Z,78.30
2017-10-27T18:26:12.578Z,78.20
2017-10-27T18:28:40.819Z,78.20
2017-10-27T18:31:09.854Z,78.20
2017-10-27T18:33:38.096Z,78.10
2017-10-27T18:36:06.354Z,78.20
2017-10-27T18:38:34.607Z,78.00
2017-10-27T18:41:02.869Z,77.90
2017-10-27T18:43:31.121Z,77.90
2017-10-27T18:45:59.396Z,78.20
2017-10-27T18:48:27.653Z,78.00
2017-10-27T18:50:55.887Z,78.30
2017-10-27T18:53:24.912Z,77.90
2017-10-27T18:55:53.154Z,77.90
2017-10-27T18:58:22.187Z,77.90
2017-10-27T19:00:50.546Z,77.90
2017-10-27T19:03:19.556Z,77.80
2017-10-27T19:05:47.796Z,77.70
2017-10-27T19:08:16.058Z,77.70
2017-10-27T19:10:44.303Z,77.20
2017-10-27T19:13:12.575Z,77.20
2017-10-27T19:15:40.847Z,76.80
2017-10-27T19:18:09.875Z,76.90
2017-10-27T19:20:38.128Z,76.90
2017-10-27T19:23:06.400Z,77.40
2017-10-27T19:25:35.433Z,77.40
2017-10-27T19:28:03.692Z,77.40
2017-10-27T19:30:32.706Z,77.50
2017-10-27T19:33:00.967Z,77.40
2017-10-27T19:35:30.421Z,77.60
2017-10-27T19:37:58.712Z,77.50
2017-10-27T19:40:26.962Z,77.60
2017-10-27T19:42:55.996Z,77.50
2017-10-27T19:45:24.227Z,77.60
2017-10-27T19:47:53.743Z,77.70
2017-10-27T19:50:34.528Z,77.70
2017-10-27T19:53:04.660Z,78.20
2017-10-27T19:55:32.906Z,78.10
2017-10-27T19:58:01.176Z,78.30
2017-10-27T20:00:30.190Z,78.80
2017-10-27T20:02:58.442Z,78.70
2017-10-27T20:05:26.699Z,79.00
2017-10-27T20:07:54.956Z,79.00
2017-10-27T20:10:23.199Z,79.10
2017-10-27T20:12:52.223Z,79.20
2017-10-27T20:15:20.468Z,79.20
2017-10-27T20:17:48.732Z,79.20
2017-10-27T20:20:16.974Z,79.40
2017-10-27T20:22:45.236Z,80.40
2017-10-27T20:25:13.481Z,79.70
2017-10-27T20:27:41.739Z,80.10
2017-10-27T20:30:09.990Z,80.20
2017-10-27T20:32:38.249Z,80.20
2017-10-27T20:35:07.293Z,80.40
2017-10-27T20:37:35.555Z,80.40
2017-10-27T20:40:03.815Z,80.50
2017-10-27T20:42:32.824Z,81.00
2017-10-27T20:45:01.099Z,81.10
2017-10-27T20:47:29.355Z,81.30
2017-10-27T20:49:58.386Z,81.30
2017-10-27T20:52:26.644Z,81.30
2017-10-27T20:54:55.670Z,81.20
2017-10-27T20:57:23.923Z,81.30
2017-10-27T20:59:53.022Z,81.30
2017-10-27T21:02:22.032Z,81.20
2017-10-27T21:04:50.295Z,81.20
2017-10-27T21:07:19.317Z,81.50
2017-10-27T21:09:47.582Z,81.50
2017-10-27T21:12:16.610Z,81.50
2017-10-27T21:14:44.879Z,81.50
2017-10-27T21:17:13.130Z,81.50
2017-10-27T21:19:42.160Z,81.50
2017-10-27T21:22:10.408Z,81.40
2017-10-27T21:24:39.488Z,81.70
2017-10-27T21:27:07.722Z,81.60
2017-10-27T21:29:35.992Z,81.60
2017-10-27T21:32:04.262Z,81.80
2017-10-27T21:34:33.608Z,81.30
2017-10-27T21:37:01.863Z,81.30
2017-10-27T21:39:30.126Z,81.60
2017-10-27T21:41:59.136Z,82.40
2017-10-27T21:44:28.676Z,81.70
2017-10-27T21:46:56.927Z,81.60
2017-10-27T21:49:25.955Z,81.90
2017-10-27T21:51:54.198Z,81.80
2017-10-27T21:54:23.244Z,82.20
2017-10-27T21:56:51.497Z,82.20
2017-10-27T21:59:19.756Z,82.80
2017-10-27T22:01:48.827Z,83.00
2017-10-27T22:04:17.063Z,82.90
2017-10-27T22:06:45.351Z,83.20
2017-10-27T22:09:13.610Z,83.30
2017-10-27T22:11:42.651Z,83.10
2017-10-27T22:14:10.925Z,83.00
2017-10-27T22:16:39.249Z,83.30
2017-10-27T22:19:08.299Z,84.40
2017-10-27T22:21:36.662Z,84.20
2017-10-27T22:24:04.928Z,84.90
2017-10-27T22:26:33.947Z,86.00
2017-10-27T22:29:02.211Z,86.00
2017-10-27T22:31:31.234Z,86.60
2017-10-27T22:33:59.484Z,86.60
2017-10-27T22:36:28.505Z,86.70
2017-10-27T22:38:56.741Z,86.70
2017-10-27T22:41:25.021Z,86.90
2017-10-27T22:43:53.272Z,88.20
2017-10-27T22:46:21.534Z,87.50
2017-10-27T22:48:49.794Z,87.70
2017-10-27T22:51:18.576Z,87.70
2017-10-27T22:53:47.587Z,87.50
2017-10-27T22:56:15.912Z,87.50
2017-10-27T22:58:44.191Z,87.70
2017-10-27T23:01:12.463Z,87.60
2017-10-27T23:03:40.744Z,87.40
2017-10-27T23:06:09.006Z,87.20
2017-10-27T23:08:37.277Z,87.40
2017-10-27T23:11:05.697Z,87.70
2017-10-27T23:13:33.985Z,87.70
2017-10-27T23:16:02.245Z,87.90
2017-10-27T23:18:30.506Z,87.70
2017-10-27T23:20:58.758Z,87.80
2017-10-27T23:23:27.795Z,88.30
2017-10-27T23:25:56.054Z,88.30
2017-10-27T23:28:25.084Z,89.10
2017-10-27T23:30:53.340Z,88.90
2017-10-27T23:33:21.612Z,89.00
2017-10-27T23:35:50.651Z,89.10
2017-10-27T23:38:18.918Z,89.10
2017-10-27T23:40:47.168Z,89.60
2017-10-27T23:43:16.205Z,90.10
2017-10-27T23:45:44.506Z,89.60
2017-10-27T23:48:12.927Z,89.50
2017-10-27T23:50:41.962Z,89.50
2017-10-27T23:53:10.263Z,89.50
2017-10-27T23:55:38.516Z,89.60
2017-10-27T23:58:06.788Z,89.70
